sensor_id;sensor_type;location;lat;lon;timestamp;P1;durP1;ratioP1;P2;durP2;ratioP2
29030;SDS011;16122;50.236;11.734;2023-08-30T00:00:41;1.00;;;0.90;;
29030;SDS011;16122;50.236;11.734;2023-08-30T00:03:07;0.93;;;0.90;;
29030;SDS011;16122;50.236;11.734;2023-08-30T00:05:33;2.80;;;1.00;;
29030;SDS011;16122;50.236;11.734;2023-08-30T00:07:59;1.00;;;0.90;;
29030;SDS011;16122;50.236;11.734;2023-08-30T00:10:25;0.90;;;0.80;;
29030;SDS011;16122;50.236;11.734;2023-08-30T00:12:51;1.73;;;1.00;;
29030;SDS011;16122;50.236;11.734;2023-08-30T00:15:16;1.10;;;1.00;;
29030;SDS011;16122;50.236;11.734;2023-08-30T00:17:42;2.10;;;1.00;;
29030;SDS011;16122;50.236;11.734;2023-08-30T00:20:09;1.53;;;1.10;;
29030;SDS011;16122;50.236;11.734;2023-08-30T00:22:35;0.80;;;0.80;;
29030;SDS011;16122;50.236;11.734;2023-08-30T00:25:01;3.10;;;0.90;;
29030;SDS011;16122;50.236;11.734;2023-08-30T00:27:27;1.80;;;0.83;;
29030;SDS011;16122;50.236;11.734;2023-08-30T00:29:52;0.80;;;0.80;;
29030;SDS011;16122;50.236;11.734;2023-08-30T00:32:19;1.60;;;0.87;;
29030;SDS011;16122;50.236;11.734;2023-08-30T00:34:44;1.00;;;0.90;;
29030;SDS011;16122;50.236;11.734;2023-08-30T00:37:10;0.87;;;0.87;;
29030;SDS011;16122;50.236;11.734;2023-08-30T00:39:39;0.90;;;0.80;;
29030;SDS011;16122;50.236;11.734;2023-08-30T00:42:06;1.97;;;1.23;;
29030;SDS011;16122;50.236;11.734;2023-08-30T00:44:33;1.10;;;1.00;;
29030;SDS011;16122;50.236;11.734;2023-08-30T00:47:00;1.30;;;0.90;;
29030;SDS011;16122;50.236;11.734;2023-08-30T00:49:27;1.07;;;0.90;;
29030;SDS011;16122;50.236;11.734;2023-08-30T00:51:54;1.60;;;1.00;;
29030;SDS011;16122;50.236;11.734;2023-08-30T00:54:20;1.30;;;0.80;;
29030;SDS011;16122;50.236;11.734;2023-08-30T00:56:46;1.33;;;0.90;;
29030;SDS011;16122;50.236;11.734;2023-08-30T00:59:12;1.43;;;1.00;;
29030;SDS011;16122;50.236;11.734;2023-08-30T01:01:39;1.43;;;1.17;;
29030;SDS011;16122;50.236;11.734;2023-08-30T01:04:06;0.87;;;0.87;;
29030;SDS011;16122;50.236;11.734;2023-08-30T01:06:32;0.80;;;0.80;;
29030;SDS011;16122;50.236;11.734;2023-08-30T01:09:01;1.10;;;1.00;;
29030;SDS011;16122;50.236;11.734;2023-08-30T01:11:46;1.10;;;0.90;;
29030;SDS011;16122;50.236;11.734;2023-08-30T01:14:20;1.27;;;0.83;;
29030;SDS011;16122;50.236;11.734;2023-08-30T01:16:48;0.90;;;0.77;;
29030;SDS011;16122;50.236;11.734;2023-08-30T01:21:50;1.20;;;1.10;;
29030;SDS011;16122;50.236;11.734;2023-08-30T01:24:29;1.43;;;0.80;;
29030;SDS011;16122;50.236;11.734;2023-08-30T01:27:09;1.23;;;1.13;;
29030;SDS011;16122;50.236;11.734;2023-08-30T01:29:38;1.63;;;1.00;;
29030;SDS011;16122;50.236;11.734;2023-08-30T01:32:08;0.90;;;0.90;;
29030;SDS011;16122;50.236;11.734;2023-08-30T01:34:35;1.00;;;0.90;;
29030;SDS011;16122;50.236;11.734;2023-08-30T01:37:04;0.80;;;0.80;;
29030;SDS011;16122;50.236;11.734;2023-08-30T01:39:39;0.70;;;0.70;;
29030;SDS011;16122;50.236;11.734;2023-08-30T01:42:06;1.10;;;1.00;;
29030;SDS011;16122;50.236;11.734;2023-08-30T01:44:35;0.90;;;0.90;;
29030;SDS011;16122;50.236;11.734;2023-08-30T01:47:02;1.10;;;1.00;;
29030;SDS011;16122;50.236;11.734;2023-08-30T01:49:29;1.33;;;0.90;;
29030;SDS011;16122;50.236;11.734;2023-08-30T01:51:59;1.00;;;0.90;;
29030;SDS011;16122;50.236;11.734;2023-08-30T01:54:25;0.90;;;0.80;;
29030;SDS011;16122;50.236;11.734;2023-08-30T01:56:53;1.10;;;1.00;;
29030;SDS011;16122;50.236;11.734;2023-08-30T01:59:19;0.80;;;0.80;;
29030;SDS011;16122;50.236;11.734;2023-08-30T02:01:44;1.43;;;0.83;;
29030;SDS011;16122;50.236;11.734;2023-08-30T02:04:10;0.80;;;0.80;;
29030;SDS011;16122;50.236;11.734;2023-08-30T02:06:39;0.97;;;0.80;;
29030;SDS011;16122;50.236;11.734;2023-08-30T02:11:59;1.10;;;1.00;;
29030;SDS011;16122;50.236;11.734;2023-08-30T02:14:29;0.80;;;0.80;;
29030;SDS011;16122;50.236;11.734;2023-08-30T02:16:57;0.87;;;0.80;;
29030;SDS011;16122;50.236;11.734;2023-08-30T02:19:24;1.00;;;0.90;;
29030;SDS011;16122;50.236;11.734;2023-08-30T02:21:50;1.00;;;0.90;;
29030;SDS011;16122;50.236;11.734;2023-08-30T02:24:17;1.10;;;0.90;;
29030;SDS011;16122;50.236;11.734;2023-08-30T02:26:43;1.97;;;0.90;;
29030;SDS011;16122;50.236;11.734;2023-08-30T02:29:09;0.80;;;0.80;;
29030;SDS011;16122;50.236;11.734;2023-08-30T02:31:36;1.23;;;1.00;;
29030;SDS011;16122;50.236;11.734;2023-08-30T02:34:02;0.70;;;0.70;;
29030;SDS011;16122;50.236;11.734;2023-08-30T02:36:29;0.77;;;0.77;;
29030;SDS011;16122;50.236;11.734;2023-08-30T02:38:55;1.00;;;0.90;;
29030;SDS011;16122;50.236;11.734;2023-08-30T02:41:21;1.43;;;0.80;;
29030;SDS011;16122;50.236;11.734;2023-08-30T02:43:47;1.00;;;0.70;;
29030;SDS011;16122;50.236;11.734;2023-08-30T02:46:13;1.10;;;0.90;;
29030;SDS011;16122;50.236;11.734;2023-08-30T02:48:39;0.90;;;0.90;;
29030;SDS011;16122;50.236;11.734;2023-08-30T02:51:06;0.80;;;0.80;;
29030;SDS011;16122;50.236;11.734;2023-08-30T02:53:32;0.97;;;0.87;;
29030;SDS011;16122;50.236;11.734;2023-08-30T02:55:58;1.10;;;1.00;;
29030;SDS011;16122;50.236;11.734;2023-08-30T02:58:24;0.80;;;0.80;;
29030;SDS011;16122;50.236;11.734;2023-08-30T03:00:55;0.70;;;0.70;;
29030;SDS011;16122;50.236;11.734;2023-08-30T03:03:21;1.50;;;0.93;;
29030;SDS011;16122;50.236;11.734;2023-08-30T03:05:47;1.00;;;0.80;;
29030;SDS011;16122;50.236;11.734;2023-08-30T03:08:13;0.93;;;0.93;;
29030;SDS011;16122;50.236;11.734;2023-08-30T03:10:39;0.70;;;0.70;;
29030;SDS011;16122;50.236;11.734;2023-08-30T03:13:06;1.17;;;0.93;;
29030;SDS011;16122;50.236;11.734;2023-08-30T03:15:31;0.70;;;0.70;;
29030;SDS011;16122;50.236;11.734;2023-08-30T03:17:59;1.00;;;0.90;;
29030;SDS011;16122;50.236;11.734;2023-08-30T03:20:26;1.00;;;0.77;;
29030;SDS011;16122;50.236;11.734;2023-08-30T03:22:55;1.20;;;1.10;;
29030;SDS011;16122;50.236;11.734;2023-08-30T03:25:22;0.93;;;0.80;;
29030;SDS011;16122;50.236;11.734;2023-08-30T03:27:48;1.13;;;1.00;;
29030;SDS011;16122;50.236;11.734;2023-08-30T03:30:14;1.47;;;0.70;;
29030;SDS011;16122;50.236;11.734;2023-08-30T03:32:41;0.97;;;0.87;;
29030;SDS011;16122;50.236;11.734;2023-08-30T03:35:07;0.93;;;0.90;;
29030;SDS011;16122;50.236;11.734;2023-08-30T03:37:33;1.33;;;1.00;;
29030;SDS011;16122;50.236;11.734;2023-08-30T03:40:00;0.97;;;0.87;;
29030;SDS011;16122;50.236;11.734;2023-08-30T03:42:27;1.00;;;0.97;;
29030;SDS011;16122;50.236;11.734;2023-08-30T03:44:52;1.00;;;0.90;;
29030;SDS011;16122;50.236;11.734;2023-08-30T03:47:18;1.47;;;0.90;;
29030;SDS011;16122;50.236;11.734;2023-08-30T03:49:44;0.90;;;0.90;;
29030;SDS011;16122;50.236;11.734;2023-08-30T03:52:10;1.80;;;0.80;;
29030;SDS011;16122;50.236;11.734;2023-08-30T03:54:35;1.90;;;1.10;;
29030;SDS011;16122;50.236;11.734;2023-08-30T03:57:01;6.13;;;1.33;;
29030;SDS011;16122;50.236;11.734;2023-08-30T03:59:27;2.03;;;1.40;;
29030;SDS011;16122;50.236;11.734;2023-08-30T04:01:54;1.80;;;1.40;;
29030;SDS011;16122;50.236;11.734;2023-08-30T04:04:20;1.60;;;1.33;;
29030;SDS011;16122;50.236;11.734;2023-08-30T04:06:47;1.70;;;1.27;;
29030;SDS011;16122;50.236;11.734;2023-08-30T04:09:15;1.80;;;1.20;;
29030;SDS011;16122;50.236;11.734;2023-08-30T04:11:41;1.83;;;1.17;;
29030;SDS011;16122;50.236;11.734;2023-08-30T04:14:07;5.60;;;1.87;;
29030;SDS011;16122;50.236;11.734;2023-08-30T04:16:34;2.37;;;1.30;;
29030;SDS011;16122;50.236;11.734;2023-08-30T04:19:00;1.43;;;1.10;;
29030;SDS011;16122;50.236;11.734;2023-08-30T04:21:25;1.27;;;1.00;;
29030;SDS011;16122;50.236;11.734;2023-08-30T04:23:51;1.90;;;1.10;;
29030;SDS011;16122;50.236;11.734;2023-08-30T04:26:17;1.77;;;1.10;;
29030;SDS011;16122;50.236;11.734;2023-08-30T04:28:43;2.33;;;1.10;;
29030;SDS011;16122;50.236;11.734;2023-08-30T04:31:09;4.17;;;1.37;;
29030;SDS011;16122;50.236;11.734;2023-08-30T04:33:34;3.00;;;1.40;;
29030;SDS011;16122;50.236;11.734;2023-08-30T04:36:02;1.50;;;1.40;;
29030;SDS011;16122;50.236;11.734;2023-08-30T04:38:29;3.37;;;1.00;;
29030;SDS011;16122;50.236;11.734;2023-08-30T04:40:56;2.00;;;1.23;;
29030;SDS011;16122;50.236;11.734;2023-08-30T04:43:24;2.47;;;1.23;;
29030;SDS011;16122;50.236;11.734;2023-08-30T04:45:50;3.37;;;1.40;;
29030;SDS011;16122;50.236;11.734;2023-08-30T04:48:16;2.00;;;1.17;;
29030;SDS011;16122;50.236;11.734;2023-08-30T04:50:42;1.77;;;1.43;;
29030;SDS011;16122;50.236;11.734;2023-08-30T04:53:08;1.87;;;1.33;;
29030;SDS011;16122;50.236;11.734;2023-08-30T04:55:34;4.63;;;1.73;;
29030;SDS011;16122;50.236;11.734;2023-08-30T04:58:00;4.47;;;1.60;;
29030;SDS011;16122;50.236;11.734;2023-08-30T05:00:31;2.80;;;1.40;;
29030;SDS011;16122;50.236;11.734;2023-08-30T05:02:57;2.93;;;1.47;;
29030;SDS011;16122;50.236;11.734;2023-08-30T05:05:23;5.20;;;1.30;;
29030;SDS011;16122;50.236;11.734;2023-08-30T05:07:49;1.57;;;1.47;;
29030;SDS011;16122;50.236;11.734;2023-08-30T05:10:14;1.97;;;1.47;;
29030;SDS011;16122;50.236;11.734;2023-08-30T05:12:41;1.20;;;1.10;;
29030;SDS011;16122;50.236;11.734;2023-08-30T05:15:09;1.80;;;1.40;;
29030;SDS011;16122;50.236;11.734;2023-08-30T05:17:35;1.77;;;1.20;;
29030;SDS011;16122;50.236;11.734;2023-08-30T05:20:01;2.70;;;1.03;;
29030;SDS011;16122;50.236;11.734;2023-08-30T05:22:28;2.23;;;1.40;;
29030;SDS011;16122;50.236;11.734;2023-08-30T05:24:54;1.97;;;1.20;;
29030;SDS011;16122;50.236;11.734;2023-08-30T05:27:20;1.33;;;1.23;;
29030;SDS011;16122;50.236;11.734;2023-08-30T05:29:47;1.60;;;1.20;;
29030;SDS011;16122;50.236;11.734;2023-08-30T05:32:13;2.60;;;1.57;;
29030;SDS011;16122;50.236;11.734;2023-08-30T05:35:04;1.77;;;1.30;;
29030;SDS011;16122;50.236;11.734;2023-08-30T05:37:52;1.00;;;0.90;;
29030;SDS011;16122;50.236;11.734;2023-08-30T05:40:27;3.23;;;1.30;;
29030;SDS011;16122;50.236;11.734;2023-08-30T05:42:53;1.20;;;1.00;;
29030;SDS011;16122;50.236;11.734;2023-08-30T05:45:21;1.57;;;1.30;;
29030;SDS011;16122;50.236;11.734;2023-08-30T05:47:47;1.90;;;1.10;;
29030;SDS011;16122;50.236;11.734;2023-08-30T05:50:13;1.87;;;1.40;;
29030;SDS011;16122;50.236;11.734;2023-08-30T05:52:40;1.67;;;1.27;;
29030;SDS011;16122;50.236;11.734;2023-08-30T05:55:09;2.10;;;1.30;;
29030;SDS011;16122;50.236;11.734;2023-08-30T05:57:36;1.50;;;1.30;;
29030;SDS011;16122;50.236;11.734;2023-08-30T06:00:02;1.20;;;1.10;;
29030;SDS011;16122;50.236;11.734;2023-08-30T06:02:39;1.30;;;1.20;;
29030;SDS011;16122;50.236;11.734;2023-08-30T06:05:05;1.10;;;0.90;;
29030;SDS011;16122;50.236;11.734;2023-08-30T06:07:31;1.53;;;1.10;;
29030;SDS011;16122;50.236;11.734;2023-08-30T06:09:57;1.60;;;1.20;;
29030;SDS011;16122;50.236;11.734;2023-08-30T06:12:23;1.07;;;0.97;;
29030;SDS011;16122;50.236;11.734;2023-08-30T06:14:50;1.07;;;0.93;;
29030;SDS011;16122;50.236;11.734;2023-08-30T06:17:20;1.20;;;1.10;;
29030;SDS011;16122;50.236;11.734;2023-08-30T06:19:46;1.57;;;1.47;;
29030;SDS011;16122;50.236;11.734;2023-08-30T06:22:13;1.37;;;1.10;;
29030;SDS011;16122;50.236;11.734;2023-08-30T06:24:39;4.97;;;1.50;;
29030;SDS011;16122;50.236;11.734;2023-08-30T06:27:04;1.93;;;1.30;;
29030;SDS011;16122;50.236;11.734;2023-08-30T06:29:30;2.20;;;1.40;;
29030;SDS011;16122;50.236;11.734;2023-08-30T06:31:57;1.83;;;1.50;;
29030;SDS011;16122;50.236;11.734;2023-08-30T06:34:23;2.00;;;1.60;;
29030;SDS011;16122;50.236;11.734;2023-08-30T06:36:49;2.77;;;1.40;;
29030;SDS011;16122;50.236;11.734;2023-08-30T06:39:16;1.63;;;1.33;;
29030;SDS011;16122;50.236;11.734;2023-08-30T06:41:42;1.40;;;1.20;;
29030;SDS011;16122;50.236;11.734;2023-08-30T06:44:11;2.70;;;1.40;;
29030;SDS011;16122;50.236;11.734;2023-08-30T06:46:37;1.80;;;1.40;;
29030;SDS011;16122;50.236;11.734;2023-08-30T06:49:03;1.60;;;1.50;;
29030;SDS011;16122;50.236;11.734;2023-08-30T06:51:30;2.00;;;1.17;;
29030;SDS011;16122;50.236;11.734;2023-08-30T06:53:56;1.87;;;1.40;;
29030;SDS011;16122;50.236;11.734;2023-08-30T06:56:25;1.50;;;1.37;;
29030;SDS011;16122;50.236;11.734;2023-08-30T06:58:51;1.23;;;1.13;;
29030;SDS011;16122;50.236;11.734;2023-08-30T07:01:17;2.67;;;1.40;;
29030;SDS011;16122;50.236;11.734;2023-08-30T07:03:43;1.60;;;1.40;;
29030;SDS011;16122;50.236;11.734;2023-08-30T07:06:09;2.30;;;1.47;;
29030;SDS011;16122;50.236;11.734;2023-08-30T07:08:35;3.33;;;1.50;;
29030;SDS011;16122;50.236;11.734;2023-08-30T07:11:01;1.50;;;1.40;;
29030;SDS011;16122;50.236;11.734;2023-08-30T07:13:27;1.77;;;1.30;;
29030;SDS011;16122;50.236;11.734;2023-08-30T07:15:53;1.87;;;1.30;;
29030;SDS011;16122;50.236;11.734;2023-08-30T07:18:19;2.10;;;1.43;;
29030;SDS011;16122;50.236;11.734;2023-08-30T07:20:45;2.37;;;1.40;;
29030;SDS011;16122;50.236;11.734;2023-08-30T07:23:11;1.80;;;1.40;;
29030;SDS011;16122;50.236;11.734;2023-08-30T07:25:37;2.10;;;1.60;;
29030;SDS011;16122;50.236;11.734;2023-08-30T07:28:04;2.90;;;1.60;;
29030;SDS011;16122;50.236;11.734;2023-08-30T07:30:30;1.73;;;1.50;;
29030;SDS011;16122;50.236;11.734;2023-08-30T07:32:56;2.50;;;1.50;;
29030;SDS011;16122;50.236;11.734;2023-08-30T07:35:22;1.77;;;1.67;;
29030;SDS011;16122;50.236;11.734;2023-08-30T07:37:48;4.40;;;2.83;;
29030;SDS011;16122;50.236;11.734;2023-08-30T07:40:14;5.23;;;4.40;;
29030;SDS011;16122;50.236;11.734;2023-08-30T07:42:39;10.83;;;7.20;;
29030;SDS011;16122;50.236;11.734;2023-08-30T07:45:05;18.77;;;12.40;;
29030;SDS011;16122;50.236;11.734;2023-08-30T07:47:32;22.27;;;16.10;;
29030;SDS011;16122;50.236;11.734;2023-08-30T07:49:57;31.80;;;20.77;;
29030;SDS011;16122;50.236;11.734;2023-08-30T07:52:23;29.07;;;20.13;;
29030;SDS011;16122;50.236;11.734;2023-08-30T07:54:49;31.40;;;20.60;;
29030;SDS011;16122;50.236;11.734;2023-08-30T07:57:15;35.00;;;24.73;;
29030;SDS011;16122;50.236;11.734;2023-08-30T07:59:40;32.40;;;23.13;;
29030;SDS011;16122;50.236;11.734;2023-08-30T08:02:06;32.43;;;22.57;;
29030;SDS011;16122;50.236;11.734;2023-08-30T08:04:35;16.47;;;13.30;;
29030;SDS011;16122;50.236;11.734;2023-08-30T08:07:02;19.07;;;14.77;;
29030;SDS011;16122;50.236;11.734;2023-08-30T08:09:28;24.30;;;16.87;;
29030;SDS011;16122;50.236;11.734;2023-08-30T08:11:54;15.37;;;11.07;;
29030;SDS011;16122;50.236;11.734;2023-08-30T08:14:21;27.43;;;17.00;;
29030;SDS011;16122;50.236;11.734;2023-08-30T08:16:48;18.07;;;11.00;;
29030;SDS011;16122;50.236;11.734;2023-08-30T08:19:14;17.80;;;12.40;;
29030;SDS011;16122;50.236;11.734;2023-08-30T08:21:39;16.00;;;11.20;;
29030;SDS011;16122;50.236;11.734;2023-08-30T08:24:05;17.03;;;10.83;;
29030;SDS011;16122;50.236;11.734;2023-08-30T08:26:31;10.00;;;7.63;;
29030;SDS011;16122;50.236;11.734;2023-08-30T08:28:57;12.40;;;8.90;;
29030;SDS011;16122;50.236;11.734;2023-08-30T08:31:23;12.40;;;9.37;;
29030;SDS011;16122;50.236;11.734;2023-08-30T08:34:05;12.23;;;8.80;;
29030;SDS011;16122;50.236;11.734;2023-08-30T08:36:32;8.87;;;6.60;;
29030;SDS011;16122;50.236;11.734;2023-08-30T08:38:58;11.03;;;8.00;;
29030;SDS011;16122;50.236;11.734;2023-08-30T08:41:25;8.73;;;6.27;;
29030;SDS011;16122;50.236;11.734;2023-08-30T08:43:56;9.03;;;6.13;;
29030;SDS011;16122;50.236;11.734;2023-08-30T08:46:24;8.33;;;6.10;;
29030;SDS011;16122;50.236;11.734;2023-08-30T08:48:51;7.03;;;5.63;;
29030;SDS011;16122;50.236;11.734;2023-08-30T08:51:19;6.87;;;5.03;;
29030;SDS011;16122;50.236;11.734;2023-08-30T08:53:45;7.60;;;5.60;;
29030;SDS011;16122;50.236;11.734;2023-08-30T08:56:12;4.20;;;3.80;;
29030;SDS011;16122;50.236;11.734;2023-08-30T08:58:39;7.20;;;5.07;;
29030;SDS011;16122;50.236;11.734;2023-08-30T09:01:05;4.57;;;3.70;;
29030;SDS011;16122;50.236;11.734;2023-08-30T09:03:32;4.27;;;3.53;;
29030;SDS011;16122;50.236;11.734;2023-08-30T09:06:00;4.07;;;3.67;;
29030;SDS011;16122;50.236;11.734;2023-08-30T09:08:28;4.33;;;3.93;;
29030;SDS011;16122;50.236;11.734;2023-08-30T09:10:54;4.07;;;3.40;;
29030;SDS011;16122;50.236;11.734;2023-08-30T09:13:20;3.83;;;2.93;;
29030;SDS011;16122;50.236;11.734;2023-08-30T09:15:47;3.97;;;3.17;;
29030;SDS011;16122;50.236;11.734;2023-08-30T09:18:17;3.50;;;3.20;;
29030;SDS011;16122;50.236;11.734;2023-08-30T09:20:43;2.70;;;2.50;;
29030;SDS011;16122;50.236;11.734;2023-08-30T09:23:16;4.13;;;2.97;;
29030;SDS011;16122;50.236;11.734;2023-08-30T09:25:43;2.60;;;2.40;;
29030;SDS011;16122;50.236;11.734;2023-08-30T09:28:09;2.43;;;2.23;;
29030;SDS011;16122;50.236;11.734;2023-08-30T09:30:35;3.10;;;2.17;;
29030;SDS011;16122;50.236;11.734;2023-08-30T09:33:01;2.97;;;2.30;;
29030;SDS011;16122;50.236;11.734;2023-08-30T09:35:28;4.20;;;2.40;;
29030;SDS011;16122;50.236;11.734;2023-08-30T09:37:54;2.43;;;2.07;;
29030;SDS011;16122;50.236;11.734;2023-08-30T09:40:19;2.07;;;1.83;;
29030;SDS011;16122;50.236;11.734;2023-08-30T09:42:45;6.10;;;3.03;;
29030;SDS011;16122;50.236;11.734;2023-08-30T09:45:18;2.80;;;2.07;;
29030;SDS011;16122;50.236;11.734;2023-08-30T09:47:48;2.10;;;2.00;;
29030;SDS011;16122;50.236;11.734;2023-08-30T09:50:17;2.70;;;2.37;;
29030;SDS011;16122;50.236;11.734;2023-08-30T09:52:46;2.63;;;2.10;;
29030;SDS011;16122;50.236;11.734;2023-08-30T09:55:14;3.37;;;2.60;;
29030;SDS011;16122;50.236;11.734;2023-08-30T09:57:41;3.33;;;2.47;;
29030;SDS011;16122;50.236;11.734;2023-08-30T10:00:11;2.10;;;1.90;;
29030;SDS011;16122;50.236;11.734;2023-08-30T10:02:37;5.23;;;3.10;;
29030;SDS011;16122;50.236;11.734;2023-08-30T10:05:08;13.20;;;9.90;;
29030;SDS011;16122;50.236;11.734;2023-08-30T10:07:35;19.53;;;12.43;;
29030;SDS011;16122;50.236;11.734;2023-08-30T10:10:03;11.73;;;8.33;;
29030;SDS011;16122;50.236;11.734;2023-08-30T10:12:32;10.30;;;7.63;;
29030;SDS011;16122;50.236;11.734;2023-08-30T10:14:59;11.07;;;8.50;;
29030;SDS011;16122;50.236;11.734;2023-08-30T10:17:27;11.23;;;7.63;;
29030;SDS011;16122;50.236;11.734;2023-08-30T10:19:55;13.70;;;7.50;;
29030;SDS011;16122;50.236;11.734;2023-08-30T10:22:22;7.70;;;5.70;;
29030;SDS011;16122;50.236;11.734;2023-08-30T10:27:18;5.37;;;4.50;;
29030;SDS011;16122;50.236;11.734;2023-08-30T10:29:45;4.40;;;3.97;;
29030;SDS011;16122;50.236;11.734;2023-08-30T10:32:12;7.60;;;4.23;;
29030;SDS011;16122;50.236;11.734;2023-08-30T10:34:38;7.67;;;4.63;;
29030;SDS011;16122;50.236;11.734;2023-08-30T10:37:07;3.90;;;3.53;;
29030;SDS011;16122;50.236;11.734;2023-08-30T10:39:35;4.60;;;3.80;;
29030;SDS011;16122;50.236;11.734;2023-08-30T10:47:33;7.67;;;4.23;;
29030;SDS011;16122;50.236;11.734;2023-08-30T10:50:10;5.83;;;3.40;;
29030;SDS011;16122;50.236;11.734;2023-08-30T10:52:36;3.40;;;2.50;;
29030;SDS011;16122;50.236;11.734;2023-08-30T10:55:13;4.73;;;3.20;;
29030;SDS011;16122;50.236;11.734;2023-08-30T10:57:44;3.07;;;2.70;;
29030;SDS011;16122;50.236;11.734;2023-08-30T11:02:47;4.00;;;3.30;;
29030;SDS011;16122;50.236;11.734;2023-08-30T11:05:18;3.67;;;2.73;;
29030;SDS011;16122;50.236;11.734;2023-08-30T11:07:48;3.20;;;2.90;;
29030;SDS011;16122;50.236;11.734;2023-08-30T11:10:16;2.53;;;2.33;;
29030;SDS011;16122;50.236;11.734;2023-08-30T11:12:45;3.20;;;2.50;;
29030;SDS011;16122;50.236;11.734;2023-08-30T11:15:13;3.07;;;2.77;;
29030;SDS011;16122;50.236;11.734;2023-08-30T11:17:39;3.53;;;2.40;;
29030;SDS011;16122;50.236;11.734;2023-08-30T11:20:07;2.50;;;1.97;;
29030;SDS011;16122;50.236;11.734;2023-08-30T11:22:35;2.30;;;2.10;;
29030;SDS011;16122;50.236;11.734;2023-08-30T11:25:05;2.40;;;1.63;;
29030;SDS011;16122;50.236;11.734;2023-08-30T11:27:33;2.00;;;1.90;;
29030;SDS011;16122;50.236;11.734;2023-08-30T11:29:59;2.50;;;2.30;;
29030;SDS011;16122;50.236;11.734;2023-08-30T11:32:28;2.33;;;2.13;;
29030;SDS011;16122;50.236;11.734;2023-08-30T11:35:01;3.60;;;2.10;;
29030;SDS011;16122;50.236;11.734;2023-08-30T11:37:27;3.10;;;2.00;;
29030;SDS011;16122;50.236;11.734;2023-08-30T11:39:57;2.10;;;2.00;;
29030;SDS011;16122;50.236;11.734;2023-08-30T11:42:23;2.80;;;1.97;;
29030;SDS011;16122;50.236;11.734;2023-08-30T11:44:50;3.70;;;1.83;;
29030;SDS011;16122;50.236;11.734;2023-08-30T11:47:23;2.00;;;1.87;;
29030;SDS011;16122;50.236;11.734;2023-08-30T11:49:49;2.43;;;2.23;;
29030;SDS011;16122;50.236;11.734;2023-08-30T11:52:17;2.00;;;1.90;;
29030;SDS011;16122;50.236;11.734;2023-08-30T11:54:43;1.90;;;1.80;;
29030;SDS011;16122;50.236;11.734;2023-08-30T11:57:10;1.83;;;1.73;;
29030;SDS011;16122;50.236;11.734;2023-08-30T11:59:36;3.13;;;2.37;;
29030;SDS011;16122;50.236;11.734;2023-08-30T12:02:02;2.70;;;2.03;;
29030;SDS011;16122;50.236;11.734;2023-08-30T12:04:29;2.87;;;2.47;;
29030;SDS011;16122;50.236;11.734;2023-08-30T12:06:56;3.20;;;2.17;;
29030;SDS011;16122;50.236;11.734;2023-08-30T12:09:22;3.40;;;3.10;;
29030;SDS011;16122;50.236;11.734;2023-08-30T12:11:51;1.93;;;1.83;;
29030;SDS011;16122;50.236;11.734;2023-08-30T12:14:16;2.50;;;1.97;;
29030;SDS011;16122;50.236;11.734;2023-08-30T12:16:42;2.30;;;2.07;;
29030;SDS011;16122;50.236;11.734;2023-08-30T12:19:11;3.00;;;2.30;;
29030;SDS011;16122;50.236;11.734;2023-08-30T12:21:43;3.83;;;2.10;;
29030;SDS011;16122;50.236;11.734;2023-08-30T12:24:12;2.20;;;2.00;;
29030;SDS011;16122;50.236;11.734;2023-08-30T12:26:38;2.20;;;2.00;;
29030;SDS011;16122;50.236;11.734;2023-08-30T12:29:07;1.97;;;1.70;;
29030;SDS011;16122;50.236;11.734;2023-08-30T12:31:32;2.13;;;1.77;;
29030;SDS011;16122;50.236;11.734;2023-08-30T12:33:58;2.70;;;2.17;;
29030;SDS011;16122;50.236;11.734;2023-08-30T12:36:24;1.90;;;1.80;;
29030;SDS011;16122;50.236;11.734;2023-08-30T12:38:50;2.27;;;2.10;;
29030;SDS011;16122;50.236;11.734;2023-08-30T12:41:16;2.37;;;1.70;;
29030;SDS011;16122;50.236;11.734;2023-08-30T12:43:42;2.43;;;1.70;;
29030;SDS011;16122;50.236;11.734;2023-08-30T12:46:08;2.40;;;2.10;;
29030;SDS011;16122;50.236;11.734;2023-08-30T12:48:34;2.20;;;2.10;;
29030;SDS011;16122;50.236;11.734;2023-08-30T12:51:00;2.13;;;1.93;;
29030;SDS011;16122;50.236;11.734;2023-08-30T12:53:25;2.37;;;2.10;;
29030;SDS011;16122;50.236;11.734;2023-08-30T12:55:51;2.20;;;1.83;;
29030;SDS011;16122;50.236;11.734;2023-08-30T12:58:17;1.50;;;1.40;;
29030;SDS011;16122;50.236;11.734;2023-08-30T13:00:43;3.93;;;2.13;;
29030;SDS011;16122;50.236;11.734;2023-08-30T13:03:08;2.30;;;1.70;;
29030;SDS011;16122;50.236;11.734;2023-08-30T13:05:34;1.93;;;1.80;;
29030;SDS011;16122;50.236;11.734;2023-08-30T13:08:01;1.63;;;1.53;;
29030;SDS011;16122;50.236;11.734;2023-08-30T13:10:27;1.80;;;1.70;;
29030;SDS011;16122;50.236;11.734;2023-08-30T13:12:53;2.00;;;1.80;;
29030;SDS011;16122;50.236;11.734;2023-08-30T13:15:19;2.80;;;2.10;;
29030;SDS011;16122;50.236;11.734;2023-08-30T13:17:45;1.80;;;1.70;;
29030;SDS011;16122;50.236;11.734;2023-08-30T13:20:11;2.30;;;2.00;;
29030;SDS011;16122;50.236;11.734;2023-08-30T13:22:37;3.20;;;1.90;;
29030;SDS011;16122;50.236;11.734;2023-08-30T13:25:03;5.73;;;2.57;;
29030;SDS011;16122;50.236;11.734;2023-08-30T13:27:29;2.00;;;1.80;;
29030;SDS011;16122;50.236;11.734;2023-08-30T13:29:55;2.17;;;1.97;;
29030;SDS011;16122;50.236;11.734;2023-08-30T13:32:21;3.20;;;2.10;;
29030;SDS011;16122;50.236;11.734;2023-08-30T13:34:46;2.83;;;2.43;;
29030;SDS011;16122;50.236;11.734;2023-08-30T13:37:12;3.20;;;1.80;;
29030;SDS011;16122;50.236;11.734;2023-08-30T13:39:39;2.67;;;1.90;;
29030;SDS011;16122;50.236;11.734;2023-08-30T13:42:05;1.80;;;1.70;;
29030;SDS011;16122;50.236;11.734;2023-08-30T13:44:31;2.23;;;1.67;;
29030;SDS011;16122;50.236;11.734;2023-08-30T13:46:57;2.20;;;2.00;;
29030;SDS011;16122;50.236;11.734;2023-08-30T13:49:24;2.13;;;1.93;;
29030;SDS011;16122;50.236;11.734;2023-08-30T13:51:50;1.80;;;1.70;;
29030;SDS011;16122;50.236;11.734;2023-08-30T13:54:17;2.30;;;2.10;;
29030;SDS011;16122;50.236;11.734;2023-08-30T13:56:43;2.83;;;2.00;;
29030;SDS011;16122;50.236;11.734;2023-08-30T13:59:09;4.30;;;1.87;;
29030;SDS011;16122;50.236;11.734;2023-08-30T14:01:35;2.23;;;2.00;;
29030;SDS011;16122;50.236;11.734;2023-08-30T14:04:01;2.20;;;1.70;;
29030;SDS011;16122;50.236;11.734;2023-08-30T14:06:30;2.20;;;2.07;;
29030;SDS011;16122;50.236;11.734;2023-08-30T14:08:56;1.77;;;1.67;;
29030;SDS011;16122;50.236;11.734;2023-08-30T14:11:22;3.00;;;2.10;;
29030;SDS011;16122;50.236;11.734;2023-08-30T14:13:48;1.73;;;1.63;;
29030;SDS011;16122;50.236;11.734;2023-08-30T14:16:14;1.70;;;1.60;;
29030;SDS011;16122;50.236;11.734;2023-08-30T14:18:39;3.03;;;2.07;;
29030;SDS011;16122;50.236;11.734;2023-08-30T14:21:05;2.20;;;2.00;;
29030;SDS011;16122;50.236;11.734;2023-08-30T14:23:31;2.27;;;2.07;;
29030;SDS011;16122;50.236;11.734;2023-08-30T14:25:58;2.57;;;2.20;;
29030;SDS011;16122;50.236;11.734;2023-08-30T14:28:34;5.73;;;2.20;;
29030;SDS011;16122;50.236;11.734;2023-08-30T14:31:06;2.90;;;2.53;;
29030;SDS011;16122;50.236;11.734;2023-08-30T14:33:33;3.90;;;2.13;;
29030;SDS011;16122;50.236;11.734;2023-08-30T14:35:59;1.70;;;1.60;;
29030;SDS011;16122;50.236;11.734;2023-08-30T14:38:27;3.00;;;2.50;;
29030;SDS011;16122;50.236;11.734;2023-08-30T14:40:57;3.57;;;2.00;;
29030;SDS011;16122;50.236;11.734;2023-08-30T14:43:24;2.23;;;2.03;;
29030;SDS011;16122;50.236;11.734;2023-08-30T14:45:49;2.40;;;2.20;;
29030;SDS011;16122;50.236;11.734;2023-08-30T14:48:15;2.23;;;2.03;;